Time;durP1;ratioP1;P1;durP2;ratioP2;P2;SDS_P1;SDS_P2;PMS_P1;PMS_P2;Temp;Humidity;BMP_temperature;BMP_pressure;BME280_temperature;BME280_humidity;BME280_pressure;Samples;Min_cycle;Max_cycle;Signal;HPM_P1;HPM_P2
2023/03/20 00:01:20;;;;;;;9.18;6.40;;;;;;;24.10;33.82;99666.66;4348427;32;33891;-63
2023/03/20 00:03:48;;;;;;;;;;;;;;;24.10;33.83;99663.94;4360775;32;34427;-66
2023/03/20 00:06:20;;;;;;;9.35;6.10;;;;;;;24.18;33.60;99661.72;4360753;32;34499;-67
2023/03/20 00:08:49;;;;;;;9.85;6.55;;;;;;;24.12;33.66;99661.81;4348477;32;32475;-65
2023/03/20 00:11:27;;;;;;;14.43;7.28;;;;;;;24.10;33.77;99661.22;4348283;32;33909;-65
2023/03/20 00:14:03;;;;;;;9.48;5.57;;;;;;;24.06;33.90;99666.31;4360490;32;32956;-66
2023/03/20 00:16:36;;;;;;;8.90;6.20;;;;;;;24.05;34.01;99661.09;4348635;32;34815;-64
2023/03/20 00:19:05;;;;;;;9.15;6.50;;;;;;;24.04;34.04;99654.81;4336385;32;33510;-66
2023/03/20 00:21:33;;;;;;;9.55;6.43;;;;;;;24.03;34.04;99655.06;4372610;32;33984;-61
2023/03/20 00:24:00;;;;;;;10.60;6.05;;;;;;;24.02;34.06;99659.69;4361635;32;34404;-65
2023/03/20 00:26:31;;;;;;;13.13;7.40;;;;;;;24.02;34.06;99658.84;4361726;32;34490;-62
2023/03/20 00:28:59;;;;;;;12.15;6.25;;;;;;;23.99;34.09;99660.13;4348316;32;33352;-62
2023/03/20 00:31:34;;;;;;;11.15;6.20;;;;;;;24.02;34.08;99667.03;4360361;32;33472;-65
2023/03/20 00:34:04;;;;;;;11.32;6.22;;;;;;;23.99;34.16;99665.59;4360626;32;34870;-64
2023/03/20 00:36:32;;;;;;;10.88;6.20;;;;;;;23.99;34.19;99662.03;4360238;32;34563;-65
2023/03/20 00:39:00;;;;;;;9.20;6.55;;;;;;;23.99;34.21;99657.41;4372597;32;33245;-62
2023/03/20 00:41:37;;;;;;;9.55;5.87;;;;;;;23.99;34.22;99659.31;4372482;32;32797;-67
2023/03/20 00:44:33;;;;;;;8.50;6.03;;;;;;;23.98;34.25;99663.09;4360133;32;33790;-61
2023/03/20 00:47:22;;;;;;;10.30;5.93;;;;;;;23.96;34.27;99663.31;4360242;32;33931;-63
2023/03/20 00:49:50;;;;;;;10.60;6.47;;;;;;;23.95;34.29;99661.66;4353013;32;33224;-67
2023/03/20 00:52:18;;;;;;;10.02;6.22;;;;;;;23.93;34.43;99655.63;4360146;32;33862;-65
2023/03/20 00:54:45;;;;;;;8.55;5.85;;;;;;;23.92;34.45;99659.38;4360292;32;33809;-64
2023/03/20 00:57:16;;;;;;;9.63;5.70;;;;;;;23.89;34.57;99657.97;4370508;32;33410;-62
2023/03/20 01:00:19;;;;;;;9.98;6.18;;;;;;;23.87;34.65;99662.81;4374999;32;33325;-65
2023/03/20 01:02:46;;;;;;;11.05;6.12;;;;;;;23.92;34.64;99662.12;4376321;32;33797;-62
2023/03/20 01:05:14;;;;;;;10.80;6.18;;;;;;;23.88;34.73;99658.22;4376149;32;33896;-63
2023/03/20 01:07:41;;;;;;;10.25;6.05;;;;;;;23.86;34.77;99663.06;4362692;32;32873;-61
2023/03/20 01:10:10;;;;;;;7.72;5.65;;;;;;;23.84;34.79;99663.31;4376135;32;34096;-61
2023/03/20 01:12:41;;;;;;;11.70;5.80;;;;;;;23.85;34.79;99666.84;4376312;32;33882;-66
2023/03/20 01:15:20;;;;;;;9.23;5.47;;;;;;;23.82;34.80;99654.50;4375069;32;33991;-62
2023/03/20 01:17:48;;;;;;;9.10;5.82;;;;;;;23.84;34.79;99663.31;4375133;32;34211;-63
2023/03/20 01:20:24;;;;;;;8.57;6.35;;;;;;;23.83;34.79;99658.91;4362721;32;34020;-64
2023/03/20 01:22:53;;;;;;;8.52;5.68;;;;;;;23.82;34.81;99659.13;4376194;32;33871;-61
2023/03/20 01:25:20;;;;;;;8.25;5.53;;;;;;;23.83;34.84;99655.38;4376102;32;35431;-63
2023/03/20 01:27:50;;;;;;;7.68;5.57;;;;;;;23.81;34.88;99647.41;4362685;32;33022;-62
2023/03/20 01:30:24;;;;;;;8.27;5.75;;;;;;;23.81;34.89;99646.56;4374556;32;34137;-61
2023/03/20 01:32:51;;;;;;;7.55;5.43;;;;;;;23.81;34.88;99641.13;4375999;32;33849;-66
2023/03/20 01:35:21;;;;;;;9.05;5.97;;;;;;;23.79;34.92;99643.28;4374896;32;34776;-64
2023/03/20 01:37:49;;;;;;;8.48;5.47;;;;;;;23.78;34.98;99641.59;4374794;32;33470;-61
2023/03/20 01:40:33;;;;;;;8.52;5.55;;;;;;;23.77;34.98;99650.81;4362328;32;32256;-61
2023/03/20 01:43:02;;;;;;;7.93;5.43;;;;;;;23.77;34.95;99640.75;4374536;32;33834;-66
2023/03/20 01:45:33;;;;;;;9.43;5.40;;;;;;;23.76;34.94;99636.38;4374906;32;34015;-61
2023/03/20 01:48:12;;;;;;;9.05;5.12;;;;;;;23.74;35.00;99638.53;4376222;32;34612;-67
2023/03/20 01:50:40;;;;;;;8.02;5.43;;;;;;;23.75;34.99;99636.63;4376451;32;33409;-65
2023/03/20 01:53:13;;;;;;;7.95;5.10;;;;;;;23.74;35.00;99634.97;4376617;32;33829;-66
2023/03/20 01:55:42;;;;;;;8.55;6.25;;;;;;;23.71;35.01;99636.25;4377945;32;33516;-62
2023/03/20 01:58:19;;;;;;;7.82;4.85;;;;;;;23.71;35.03;99638.97;4346810;32;33596;-65
2023/03/20 02:00:48;;;;;;;7.97;5.03;;;;;;;23.71;35.03;99638.16;4346532;32;33131;-65
2023/03/20 02:03:16;;;;;;;8.85;5.18;;;;;;;23.71;35.04;99640.88;4347629;33;33995;-63
2023/03/20 02:05:44;;;;;;;7.50;5.03;;;;;;;23.70;35.06;99631.88;4346854;33;32957;-62
2023/03/20 02:08:17;;;;;;;8.50;5.45;;;;;;;23.70;35.04;99622.88;4346369;33;33722;-63
2023/03/20 02:10:46;;;;;;;9.68;5.15;;;;;;;23.67;35.07;99632.31;4347226;32;32444;-66
2023/03/20 02:13:14;;;;;;;8.95;5.22;;;;;;;23.67;35.08;99624.97;4346496;32;33440;-61
2023/03/20 02:16:13;;;;;;;8.45;5.28;;;;;;;23.68;35.08;99631.25;4346557;33;33983;-64
2023/03/20 02:18:44;;;;;;;8.00;5.82;;;;;;;23.70;35.00;99625.59;4331640;33;33791;-64
2023/03/20 02:21:35;;;;;;;9.82;5.80;;;;;;;23.67;35.06;99627.69;4346709;32;33319;-61
2023/03/20 02:24:13;;;;;;;8.77;5.65;;;;;;;23.66;35.03;99626.03;4358832;32;33715;-66
2023/03/20 02:27:04;;;;;;;9.87;5.60;;;;;;;23.66;35.08;99622.50;4348973;32;33244;-64
2023/03/20 02:29:44;;;;;;;8.25;4.70;;;;;;;23.67;35.09;99621.44;4349438;32;33858;-61
2023/03/20 02:32:39;;;;;;;8.57;5.65;;;;;;;23.65;35.11;99623.56;4349553;32;33626;-61
2023/03/20 02:35:13;;;;;;;9.05;4.87;;;;;;;23.64;35.13;99621.88;4362437;32;34208;-62
2023/03/20 02:37:46;;;;;;;9.82;5.65;;;;;;;23.61;35.17;99615.00;4362423;32;34052;-65
2023/03/20 02:40:34;;;;;;;9.15;5.37;;;;;;;23.60;35.16;99609.78;4361367;32;33005;-64
2023/03/20 02:43:11;;;;;;;7.60;4.87;;;;;;;23.61;35.14;99615.00;4361156;32;33157;-61
2023/03/20 02:45:51;;;;;;;9.15;5.37;;;;;;;23.60;35.18;99607.06;4361447;32;33503;-61
2023/03/20 02:48:37;;;;;;;10.35;5.25;;;;;;;23.59;35.17;99600.75;4349101;32;33859;-62
2023/03/20 02:51:23;;;;;;;8.93;4.75;;;;;;;23.60;35.15;99604.34;4362565;32;33641;-61
2023/03/20 02:54:07;;;;;;;6.82;4.62;;;;;;;23.58;35.19;99604.53;4361435;32;34121;-61
2023/03/20 02:57:04;;;;;;;11.25;4.80;;;;;;;23.57;35.22;99607.50;4355363;32;33146;-63
2023/03/20 02:59:32;;;;;;;9.13;4.90;;;;;;;23.57;35.21;99608.34;4373263;32;34673;-63
2023/03/20 03:02:05;;;;;;;9.82;5.18;;;;;;;23.56;35.25;99600.41;4375866;32;34470;-62
2023/03/20 03:04:38;;;;;;;8.52;5.20;;;;;;;23.53;35.25;99607.13;4376189;32;33379;-62
2023/03/20 03:07:07;;;;;;;9.15;5.18;;;;;;;23.54;35.28;99608.78;4375970;32;33896;-61
2023/03/20 03:09:41;;;;;;;8.13;4.97;;;;;;;23.54;35.29;99614.25;4375912;32;34732;-65
2023/03/20 03:12:17;;;;;;;8.20;5.10;;;;;;;23.53;35.30;99615.31;4375854;32;34699;-61
2023/03/20 03:14:47;;;;;;;8.35;4.68;;;;;;;23.52;35.29;99621.81;4375827;32;33402;-63
2023/03/20 03:17:17;;;;;;;8.18;5.18;;;;;;;23.52;35.30;99618.28;4376184;32;34566;-63
2023/03/20 03:19:53;;;;;;;6.95;4.45;;;;;;;23.52;35.32;99632.72;4375672;32;33895;-62
2023/03/20 03:22:21;;;;;;;6.93;4.75;;;;;;;23.54;35.33;99622.41;4376048;32;33806;-61
2023/03/20 03:24:51;;;;;;;8.43;4.80;;;;;;;23.53;35.33;99628.09;4375886;32;33830;-66
2023/03/20 03:27:20;;;;;;;8.80;4.87;;;;;;;23.51;35.36;99636.50;4388507;32;33181;-65
2023/03/20 03:29:52;;;;;;;7.82;4.93;;;;;;;23.53;35.33;99626.19;4375912;32;34686;-65
2023/03/20 03:32:43;;;;;;;8.35;4.70;;;;;;;23.51;35.37;99631.06;4375859;32;33769;-62
2023/03/20 03:35:15;;;;;;;6.82;4.45;;;;;;;23.53;35.34;99628.09;4375819;32;33611;-61
2023/03/20 03:38:04;;;;;;;9.38;5.12;;;;;;;23.51;35.40;99625.63;4375755;32;34554;-63
2023/03/20 03:40:45;;;;;;;7.45;4.90;;;;;;;23.51;35.39;99624.78;4376946;32;33949;-64
2023/03/20 03:43:24;;;;;;;7.65;4.62;;;;;;;23.50;35.39;99631.28;4375886;32;34296;-62
2023/03/20 03:45:56;;;;;;;6.75;4.43;;;;;;;23.49;35.42;99619.56;4375890;32;33468;-66
2023/03/20 03:48:31;;;;;;;8.20;4.62;;;;;;;23.48;35.41;99626.06;4376004;32;33484;-63
2023/03/20 03:51:10;;;;;;;8.18;4.97;;;;;;;23.49;35.42;99627.72;4375992;32;34786;-64
2023/03/20 03:53:41;;;;;;;8.75;4.37;;;;;;;23.47;35.41;99639.94;4376852;32;34545;-63
2023/03/20 03:56:11;;;;;;;7.87;4.80;;;;;;;23.47;35.40;99638.03;4373097;32;33453;-66
2023/03/20 03:58:51;;;;;;;8.13;4.60;;;;;;;23.47;35.43;99638.03;4360812;32;33402;-66
2023/03/20 04:01:18;;;;;;;;;;;;;;;23.47;35.40;99638.03;4373221;32;34753;-65
2023/03/20 04:03:51;;;;;;;6.80;4.43;;;;;;;23.54;35.24;99641.47;4360650;32;32880;-65
2023/03/20 04:06:19;;;;;;;7.93;4.60;;;;;;;23.47;35.39;99638.03;4360642;32;33432;-67
2023/03/20 04:08:46;;;;;;;8.45;4.93;;;;;;;23.44;35.42;99643.94;4360405;32;34388;-61
2023/03/20 04:11:15;;;;;;;8.90;4.57;;;;;;;23.41;35.44;99645.22;4360110;32;33974;-66
2023/03/20 04:13:44;;;;;;;13.48;4.80;;;;;;;23.42;35.50;99644.16;4348466;32;33459;-62
2023/03/20 04:16:14;;;;;;;7.35;4.62;;;;;;;23.42;35.48;99651.50;4360747;32;34146;-64
2023/03/20 04:18:42;;;;;;;7.65;4.60;;;;;;;23.45;35.50;99655.66;4360246;32;33749;-65
2023/03/20 04:21:11;;;;;;;7.70;4.60;;;;;;;23.42;35.51;99654.22;4373026;32;34885;-66
2023/03/20 04:23:38;;;;;;;7.10;4.32;;;;;;;23.41;35.50;99655.28;4372786;32;33833;-65
2023/03/20 04:26:06;;;;;;;7.03;4.28;;;;;;;23.40;35.51;99654.44;4361457;32;33390;-63
2023/03/20 04:28:34;;;;;;;9.15;4.70;;;;;;;23.40;35.52;99656.34;4360731;32;33935;-67
2023/03/20 04:31:02;;;;;;;10.45;4.05;;;;;;;23.39;35.50;99660.94;4372621;32;34783;-65
2023/03/20 04:33:30;;;;;;;6.93;4.50;;;;;;;23.38;35.50;99662.03;4360318;32;34165;-62
2023/03/20 04:35:58;;;;;;;6.95;4.60;;;;;;;23.39;35.48;99657.41;4360734;32;33239;-68
2023/03/20 04:38:26;;;;;;;7.97;4.65;;;;;;;23.39;35.50;99660.13;4361625;32;33967;-64
2023/03/20 04:40:54;;;;;;;6.68;3.92;;;;;;;23.36;35.51;99658.72;4360493;32;33758;-64
2023/03/20 04:43:21;;;;;;;7.22;4.40;;;;;;;23.36;35.54;99655.12;4360196;32;32306;-63
2023/03/20 04:45:50;;;;;;;7.32;4.57;;;;;;;23.36;35.57;99658.72;4360558;32;33796;-66
2023/03/20 04:48:17;;;;;;;7.10;4.20;;;;;;;23.36;35.57;99657.84;4361523;32;33646;-64
2023/03/20 04:50:47;;;;;;;6.70;4.30;;;;;;;23.37;35.59;99654.09;4360207;32;32921;-63
2023/03/20 04:53:16;;;;;;;7.18;4.53;;;;;;;23.35;35.60;99648.84;4348388;32;33954;-65
2023/03/20 04:55:47;;;;;;;7.50;4.57;;;;;;;23.36;35.65;99647.81;4360352;32;33407;-66
2023/03/20 04:58:15;;;;;;;10.73;4.30;;;;;;;23.35;35.60;99654.28;4360053;32;33443;-63
2023/03/20 05:00:43;;;;;;;10.85;4.68;;;;;;;23.35;35.61;99653.47;4361080;32;33520;-66
2023/03/20 05:03:11;;;;;;;7.75;4.15;;;;;;;23.35;35.67;99656.19;4360179;32;35109;-63
2023/03/20 05:05:58;;;;;;;14.25;5.07;;;;;;;23.36;35.63;99657.84;4360519;32;33098;-67
2023/03/20 05:08:26;;;;;;;11.90;5.15;;;;;;;23.36;35.80;99655.12;4361411;32;33939;-63
2023/03/20 05:10:54;;;;;;;13.85;5.47;;;;;;;23.36;35.79;99652.41;4361475;32;33715;-62
2023/03/20 05:13:24;;;;;;;10.43;4.82;;;;;;;23.35;35.69;99658.91;4360128;32;34024;-62
2023/03/20 05:15:52;;;;;;;7.82;4.70;;;;;;;23.35;35.48;99658.91;4372732;32;33400;-67
2023/03/20 05:18:20;;;;;;;8.43;4.68;;;;;;;23.34;35.41;99662.72;4359904;32;34070;-66
2023/03/20 05:20:48;;;;;;;10.18;4.80;;;;;;;23.32;35.39;99671.13;4346564;32;34266;-66
2023/03/20 05:23:17;;;;;;;8.57;4.85;;;;;;;23.31;35.36;99676.75;4359621;32;33443;-64
2023/03/20 05:25:45;;;;;;;7.72;4.75;;;;;;;23.31;35.29;99682.22;4360151;32;33686;-64
2023/03/20 05:28:13;;;;;;;7.65;4.53;;;;;;;23.29;35.25;99682.44;4359861;32;32788;-65
2023/03/20 05:30:41;;;;;;;17.08;5.20;;;;;;;23.29;35.19;99684.34;4361162;32;33708;-63
2023/03/20 05:33:09;;;;;;;9.00;5.12;;;;;;;23.27;35.11;99679.13;4361284;32;33840;-62
2023/03/20 05:35:37;;;;;;;15.30;4.87;;;;;;;23.25;35.10;99681.25;4359535;32;32692;-62
2023/03/20 05:38:26;;;;;;;8.40;4.85;;;;;;;23.26;35.06;99679.34;4360881;32;35241;-62
2023/03/20 05:40:58;;;;;;;11.00;4.62;;;;;;;23.24;35.02;99679.59;4360946;32;33587;-63
2023/03/20 05:43:27;;;;;;;7.57;5.00;;;;;;;23.23;35.01;99679.81;4359643;32;33302;-62
2023/03/20 05:45:55;;;;;;;6.93;4.72;;;;;;;23.23;34.97;99688.00;4359472;32;33461;-63
2023/03/20 05:48:23;;;;;;;7.25;4.43;;;;;;;23.23;34.93;99688.00;4347414;32;32654;-61
2023/03/20 05:50:53;;;;;;;7.55;5.12;;;;;;;23.21;34.92;99692.81;4361152;32;34724;-65
2023/03/20 05:53:21;;;;;;;8.00;4.87;;;;;;;23.20;34.89;99688.44;4360122;32;34607;-62
2023/03/20 05:55:49;;;;;;;6.47;4.12;;;;;;;23.20;34.87;99702.03;4359290;32;33014;-62
2023/03/20 05:58:19;;;;;;;;;;;;;;;23.19;34.84;99695.78;4361323;32;33501;-62
2023/03/20 06:00:51;;;;;;;8.23;4.47;;;;;;;23.27;34.71;99697.34;4360782;32;34190;-64
2023/03/20 06:03:19;;;;;;;8.88;5.22;;;;;;;23.20;34.76;99704.75;4360640;32;33607;-63
2023/03/20 06:05:48;;;;;;;10.40;5.00;;;;;;;23.16;34.79;99707.94;4360734;32;33148;-67
2023/03/20 06:08:16;;;;;;;10.88;4.90;;;;;;;23.16;34.79;99707.94;4359516;32;34438;-63
2023/03/20 06:10:44;;;;;;;8.50;4.60;;;;;;;23.15;34.79;99710.87;4359321;32;34119;-65
2023/03/20 06:13:11;;;;;;;9.02;4.85;;;;;;;23.15;34.76;99716.34;4359211;32;33777;-63
2023/03/20 06:15:39;;;;;;;6.97;4.60;;;;;;;23.14;34.75;99723.66;4359411;32;33931;-66
2023/03/20 06:18:08;;;;;;;8.30;5.00;;;;;;;23.14;34.75;99715.50;4360739;32;34563;-67
2023/03/20 06:20:36;;;;;;;9.15;4.55;;;;;;;23.14;34.72;99714.69;4359325;32;33057;-68
2023/03/20 06:23:04;;;;;;;7.47;4.97;;;;;;;23.14;34.73;99714.69;4359129;32;34607;-63
2023/03/20 06:25:32;;;;;;;6.32;4.37;;;;;;;23.12;34.72;99714.88;4360231;32;34253;-64
2023/03/20 06:28:00;;;;;;;8.40;4.50;;;;;;;23.11;34.69;99710.50;4360375;32;33778;-67
2023/03/20 06:30:27;;;;;;;7.32;4.70;;;;;;;23.12;34.68;99716.78;4359057;32;34104;-65
2023/03/20 06:32:55;;;;;;;6.70;3.92;;;;;;;23.12;34.67;99717.59;4360103;32;33836;-61
2023/03/20 06:35:23;;;;;;;8.98;4.70;;;;;;;23.12;34.67;99719.50;4362387;32;32585;-62
2023/03/20 06:37:51;;;;;;;7.07;4.22;;;;;;;23.10;34.66;99721.63;4362637;32;34350;-62
2023/03/20 06:40:20;;;;;;;6.20;4.22;;;;;;;23.09;34.65;99723.53;4362485;32;33861;-64
2023/03/20 06:42:48;;;;;;;8.82;4.68;;;;;;;23.10;34.65;99721.63;4361179;32;33436;-65
2023/03/20 06:45:15;;;;;;;6.45;4.57;;;;;;;23.09;34.64;99718.06;4361390;32;33828;-65
2023/03/20 06:47:45;;;;;;;23.77;4.72;;;;;;;23.09;34.63;99719.97;4362562;32;33662;-67
2023/03/20 06:50:13;;;;;;;10.43;4.82;;;;;;;23.09;34.63;99719.97;4361303;32;34086;-67
2023/03/20 06:52:41;;;;;;;7.40;4.57;;;;;;;23.09;34.62;99719.97;4361334;32;34383;-63
2023/03/20 06:55:10;;;;;;;6.75;4.37;;;;;;;23.07;34.61;99717.44;4362646;32;33308;-64
2023/03/20 06:57:38;;;;;;;7.07;4.40;;;;;;;23.08;34.63;99724.59;4360744;32;33876;-66
2023/03/20 07:00:06;;;;;;;6.87;4.28;;;;;;;23.07;34.64;99730.22;4361080;32;33620;-63
2023/03/20 07:02:34;;;;;;;6.50;4.20;;;;;;;23.06;34.63;99731.28;4361372;32;33503;-62
2023/03/20 07:05:02;;;;;;;7.25;4.57;;;;;;;23.06;34.63;99726.69;4362243;32;33363;-64
2023/03/20 07:07:31;;;;;;;10.98;4.62;;;;;;;23.03;34.64;99735.28;4361123;32;33213;-62
2023/03/20 07:09:59;;;;;;;6.95;4.40;;;;;;;23.03;34.67;99724.41;4362579;32;33735;-63
2023/03/20 07:12:27;;;;;;;7.75;4.65;;;;;;;23.02;34.67;99725.47;4362373;32;34286;-65
2023/03/20 07:14:57;;;;;;;6.43;4.55;;;;;;;23.02;34.68;99733.63;4362468;32;33314;-62
2023/03/20 07:17:25;;;;;;;6.60;4.47;;;;;;;23.01;34.67;99736.59;4360810;32;34609;-65
2023/03/20 07:19:53;;;;;;;8.07;4.68;;;;;;;22.99;34.71;99735.97;4362390;32;34475;-63
2023/03/20 07:22:22;;;;;;;7.87;4.35;;;;;;;22.99;34.70;99742.25;4360891;32;33815;-63
2023/03/20 07:24:50;;;;;;;8.20;4.65;;;;;;;23.00;34.69;99732.22;4360940;32;33419;-63
2023/03/20 07:27:18;;;;;;;6.68;4.45;;;;;;;23.00;34.66;99732.22;4361227;32;34046;-63
2023/03/20 07:29:45;;;;;;;6.80;4.28;;;;;;;23.00;34.66;99735.75;4362391;32;33504;-62
2023/03/20 07:32:14;;;;;;;5.97;4.03;;;;;;;23.00;34.66;99733.03;4360534;32;33439;-63
2023/03/20 07:34:42;;;;;;;7.85;4.60;;;;;;;22.97;34.68;99741.63;4362129;32;33427;-62
2023/03/20 07:37:10;;;;;;;7.95;4.45;;;;;;;22.99;34.70;99733.25;4348847;32;34040;-62
2023/03/20 07:39:38;;;;;;;8.57;4.25;;;;;;;22.97;34.69;99735.38;4336453;32;33049;-61
2023/03/20 07:42:06;;;;;;;6.57;4.10;;;;;;;22.96;34.69;99729.09;4362189;32;33783;-64
2023/03/20 07:44:34;;;;;;;7.43;4.28;;;;;;;22.97;34.69;99730.75;4360231;32;33429;-62
2023/03/20 07:47:05;;;;;;;7.15;4.35;;;;;;;22.97;34.69;99733.47;4348837;32;34012;-66
2023/03/20 07:49:32;;;;;;;7.32;4.37;;;;;;;22.97;34.68;99741.63;4360644;32;34006;-62
2023/03/20 07:52:00;;;;;;;6.75;4.12;;;;;;;22.97;34.67;99741.63;4360847;32;33986;-62
2023/03/20 07:54:29;;;;;;;6.43;4.05;;;;;;;22.97;34.66;99741.63;4372998;32;33867;-64
2023/03/20 07:56:57;;;;;;;8.15;4.57;;;;;;;22.97;34.66;99733.47;4357960;32;34698;-67
2023/03/20 07:59:24;;;;;;;6.80;4.55;;;;;;;22.98;34.66;99746.00;4345550;33;33715;-68
2023/03/20 08:01:52;;;;;;;6.05;4.20;;;;;;;22.98;34.67;99751.47;4345615;33;33760;-65
2023/03/20 08:04:21;;;;;;;7.45;4.05;;;;;;;22.98;34.67;99745.19;4347014;33;33904;-67
2023/03/20 08:06:49;;;;;;;7.62;4.18;;;;;;;22.97;34.68;99749.81;4346911;33;33771;-63
2023/03/20 08:09:18;;;;;;;6.22;4.12;;;;;;;22.99;34.66;99744.97;4345631;33;34567;-66
2023/03/20 08:11:46;;;;;;;5.75;3.80;;;;;;;22.98;34.67;99754.19;4346001;33;33968;-65
2023/03/20 08:14:13;;;;;;;6.65;3.97;;;;;;;22.99;34.68;99753.16;4345627;33;32994;-68
2023/03/20 08:16:41;;;;;;;6.65;4.40;;;;;;;22.99;34.66;99755.88;4347043;33;33473;-63
2023/03/20 08:19:08;;;;;;;6.93;4.10;;;;;;;23.00;34.66;99749.37;4345708;33;34161;-65
2023/03/20 08:21:36;;;;;;;6.65;4.10;;;;;;;22.99;34.67;99753.16;4346939;33;34552;-64
2023/03/20 08:24:03;;;;;;;7.95;4.28;;;;;;;23.00;34.66;99746.62;4346725;33;33025;-66
2023/03/20 08:26:31;;;;;;;6.35;4.07;;;;;;;23.01;34.65;99747.47;4346877;33;33525;-63
2023/03/20 08:28:59;;;;;;;6.50;3.85;;;;;;;23.02;34.65;99752.69;4346891;33;33859;-62
2023/03/20 08:31:26;;;;;;;7.32;3.92;;;;;;;23.02;34.65;99754.56;4346673;33;33742;-63
2023/03/20 08:33:54;;;;;;;6.37;4.20;;;;;;;23.03;34.63;99754.34;4345781;33;32391;-61
2023/03/20 08:36:22;;;;;;;6.70;4.18;;;;;;;23.01;34.63;99756.47;4345356;33;33097;-62
2023/03/20 08:38:50;;;;;;;5.47;3.87;;;;;;;23.03;34.62;99751.59;4345559;33;33653;-61
2023/03/20 08:41:17;;;;;;;7.00;4.22;;;;;;;23.04;34.61;99750.56;4346760;33;33855;-62
2023/03/20 08:43:46;;;;;;;6.25;4.07;;;;;;;23.04;34.60;99747.84;4345293;33;34085;-63
2023/03/20 08:46:13;;;;;;;6.82;3.92;;;;;;;23.05;34.60;99754.97;4346889;33;33918;-62
2023/03/20 08:48:41;;;;;;;7.28;4.37;;;;;;;23.05;34.59;99749.50;4346729;33;34687;-63
2023/03/20 08:51:10;;;;;;;6.22;4.05;;;;;;;23.05;34.59;99757.69;4357217;32;34506;-67
2023/03/20 08:53:37;;;;;;;7.00;4.12;;;;;;;23.05;34.58;99760.41;4360523;32;33392;-64
2023/03/20 08:56:06;;;;;;;8.57;4.40;;;;;;;23.07;34.59;99765.59;4361269;32;33389;-64
2023/03/20 08:58:33;;;;;;;6.00;4.25;;;;;;;23.07;34.58;99765.59;4361314;32;34670;-62
2023/03/20 09:01:07;;;;;;;6.78;3.80;;;;;;;23.07;34.59;99765.59;4360119;32;34610;-62
2023/03/20 09:03:35;;;;;;;7.70;3.85;;;;;;;23.08;34.60;99772.72;4361477;32;33129;-68
2023/03/20 09:06:06;;;;;;;6.45;3.72;;;;;;;23.08;34.59;99767.25;4359970;32;33298;-62
2023/03/20 09:08:34;;;;;;;6.03;4.00;;;;;;;23.07;34.61;99771.87;4348087;32;33926;-63
2023/03/20 09:11:02;;;;;;;7.03;4.00;;;;;;;23.09;34.61;99780.66;4361381;32;33860;-66
2023/03/20 09:13:30;;;;;;;8.18;3.97;;;;;;;23.08;34.59;99773.56;4361174;32;32616;-62
2023/03/20 09:15:58;;;;;;;6.47;3.80;;;;;;;23.11;34.60;99769.53;4347892;32;35195;-64
2023/03/20 09:18:25;;;;;;;5.90;3.80;;;;;;;23.10;34.59;99765.16;4360151;32;33515;-62
2023/03/20 09:20:53;;;;;;;6.20;3.95;;;;;;;23.10;34.59;99766.00;4359907;32;33788;-61
2023/03/20 09:23:21;;;;;;;6.05;3.42;;;;;;;23.11;34.62;99772.28;4360060;32;32410;-62
2023/03/20 09:25:48;;;;;;;6.25;4.03;;;;;;;23.10;34.62;99774.16;4359975;32;33828;-64
2023/03/20 09:28:16;;;;;;;7.03;3.72;;;;;;;23.11;34.63;99769.53;4359868;32;33804;-64
2023/03/20 09:30:44;;;;;;;6.35;3.83;;;;;;;23.12;34.63;99763.03;4361165;32;34213;-68
2023/03/20 09:33:13;;;;;;;5.62;3.58;;;;;;;23.12;34.66;99771.22;4361125;32;33083;-70
2023/03/20 09:35:41;;;;;;;6.20;4.12;;;;;;;23.11;34.66;99769.53;4349007;32;32977;-69
2023/03/20 09:38:11;;;;;;;7.07;4.17;;;;;;;23.13;34.67;99767.44;4365664;32;32969;-69
2023/03/20 09:40:59;;;;;;;6.30;3.60;;;;;;;23.12;34.72;99769.31;4347507;32;32915;-68
2023/03/20 09:43:45;;;;;;;5.68;3.42;;;;;;;23.16;34.76;99767.81;4359727;32;33013;-70
2023/03/20 09:46:40;;;;;;;5.72;3.42;;;;;;;23.17;34.81;99765.91;4359568;32;33980;-68
2023/03/20 09:49:17;;;;;;;6.95;3.90;;;;;;;23.20;34.82;99767.38;4360630;32;34028;-70
2023/03/20 09:51:52;;;;;;;6.50;3.40;;;;;;;23.21;34.90;99769.03;4358392;32;33838;-67
2023/03/20 09:54:21;;;;;;;10.20;4.25;;;;;;;23.21;34.96;99761.69;4345895;32;32348;-64
2023/03/20 09:56:50;;;;;;;9.27;3.58;;;;;;;23.23;35.18;99766.94;4367343;32;33828;-62
2023/03/20 09:59:19;;;;;;;12.77;4.28;;;;;;;23.27;35.29;99781.72;4347345;32;33924;-66
2023/03/20 10:01:56;;;;;;;10.07;4.05;;;;;;;23.28;35.18;99767.91;4369472;32;33489;-66
2023/03/20 10:04:25;;;;;;;7.37;3.70;;;;;;;23.30;35.05;99764.94;4344666;33;33582;-63
2023/03/20 10:06:53;;;;;;;9.38;4.00;;;;;;;23.30;34.99;99767.66;4344372;33;34678;-65
2023/03/20 10:09:23;;;;;;;7.40;4.12;;;;;;;23.30;34.97;99762.22;4352331;32;33383;-64
2023/03/20 10:12:17;;;;;;;9.18;4.32;;;;;;;23.29;34.98;99763.28;4361518;32;33428;-64
2023/03/20 10:15:09;;;;;;;7.05;3.67;;;;;;;23.31;34.96;99767.44;4377896;32;33348;-64
2023/03/20 10:18:12;;;;;;;11.00;3.53;;;;;;;23.29;34.99;99763.28;4363803;32;32921;-64
2023/03/20 10:20:42;;;;;;;7.82;4.22;;;;;;;23.27;35.01;99760.81;4354207;32;32841;-64
2023/03/20 10:23:24;;;;;;;7.80;3.22;;;;;;;23.27;35.01;99765.37;4367383;32;33048;-64
2023/03/20 10:26:12;;;;;;;8.50;4.10;;;;;;;23.26;34.99;99759.13;4349799;32;32417;-67
2023/03/20 10:28:39;;;;;;;7.03;3.85;;;;;;;23.26;34.97;99750.94;4361420;32;33826;-64
2023/03/20 10:31:22;;;;;;;9.10;3.60;;;;;;;23.24;34.99;99753.09;4362423;32;33692;-65
2023/03/20 10:33:56;;;;;;;8.05;3.40;;;;;;;23.24;35.00;99749.53;4351920;32;34518;-64
2023/03/20 10:36:37;;;;;;;9.00;3.90;;;;;;;23.23;34.98;99748.69;4358733;32;33379;-64
2023/03/20 10:39:12;;;;;;;6.18;3.42;;;;;;;23.22;34.98;99748.91;4362441;32;33828;-64
2023/03/20 10:41:41;;;;;;;7.12;3.72;;;;;;;23.22;34.97;99751.63;4353171;32;32100;-63
2023/03/20 10:44:18;;;;;;;7.47;3.92;;;;;;;23.20;34.95;99748.31;4360828;32;34023;-63
2023/03/20 10:46:47;;;;;;;6.85;3.55;;;;;;;23.22;34.92;99751.63;4360494;32;33359;-65
2023/03/20 10:49:24;;;;;;;6.00;3.50;;;;;;;23.19;34.95;99750.22;4349743;32;32967;-64
2023/03/20 10:51:53;;;;;;;8.57;3.50;;;;;;;23.20;34.93;99742.87;4359984;32;33892;-64
2023/03/20 10:54:25;;;;;;;7.82;3.72;;;;;;;23.20;34.90;99749.16;4359546;32;33665;-65
2023/03/20 10:56:55;;;;;;;8.25;3.80;;;;;;;23.19;34.90;99741.22;4362279;32;34604;-64
2023/03/20 10:59:24;;;;;;;7.32;3.28;;;;;;;23.17;34.90;99742.28;4348319;32;34678;-62
2023/03/20 11:01:51;;;;;;;6.20;3.62;;;;;;;23.19;34.86;99738.50;4358999;32;33713;-62
2023/03/20 11:04:19;;;;;;;13.82;4.28;;;;;;;23.19;34.84;99738.50;4360445;32;33739;-62
2023/03/20 11:07:05;;;;;;;7.45;3.55;;;;;;;23.17;34.83;99728.66;4366259;32;33314;-63
2023/03/20 11:09:32;;;;;;;12.52;4.53;;;;;;;23.18;34.84;99734.94;4365032;32;32800;-62
2023/03/20 11:12:01;;;;;;;9.23;4.60;;;;;;;23.17;34.71;99735.97;4348703;32;33684;-64
2023/03/20 11:14:36;;;;;;;9.75;5.68;;;;;;;23.16;33.74;99728.88;4360946;32;32544;-63
2023/03/20 11:17:05;;;;;;;8.57;4.57;;;;;;;23.15;33.24;99728.03;4361075;32;33016;-62
2023/03/20 11:19:34;;;;;;;9.98;5.65;;;;;;;23.12;32.90;99720.31;4347448;32;33852;-64
2023/03/20 11:22:30;;;;;;;8.90;5.47;;;;;;;23.11;32.57;99723.28;4348769;32;33770;-64
2023/03/20 11:25:00;;;;;;;10.13;6.00;;;;;;;23.10;31.58;99719.72;4362073;32;33766;-63
2023/03/20 11:27:31;;;;;;;11.60;6.18;;;;;;;23.06;31.00;99721.25;4360750;32;33523;-65
2023/03/20 11:30:01;;;;;;;10.30;5.75;;;;;;;23.03;31.21;99715.41;4348882;32;33846;-63
2023/03/20 11:32:38;;;;;;;9.05;5.30;;;;;;;23.02;31.64;99714.56;4361201;32;33355;-62
2023/03/20 11:35:33;;;;;;;12.07;5.53;;;;;;;23.02;31.83;99720.03;4360718;32;33748;-64
2023/03/20 11:38:18;;;;;;;8.70;5.15;;;;;;;23.05;31.69;99713.31;4359146;32;32942;-63
2023/03/20 11:40:47;;;;;;;7.65;4.70;;;;;;;23.15;31.76;99711.72;4348726;32;33267;-65
2023/03/20 11:43:19;;;;;;;8.10;4.22;;;;;;;23.27;31.84;99708.22;4348413;32;33025;-63
2023/03/20 11:45:49;;;;;;;7.22;4.43;;;;;;;23.41;31.89;99712.47;4360986;32;33563;-64
2023/03/20 11:48:22;;;;;;;8.00;5.25;;;;;;;23.59;31.90;99715.16;4348685;32;32409;-63
2023/03/20 11:51:04;;;;;;;5.82;3.83;;;;;;;23.76;31.87;99712.66;4362178;32;32781;-62
2023/03/20 11:53:33;;;;;;;8.48;4.30;;;;;;;23.91;31.85;99713.06;4360724;32;33535;-63